Hot Springs, North Carolina
Current Conditions -  °F | °C
As of 2:54 AM on Monday 24 Nov 2014 (Local Time) from KAVL Reporting Station
Clear Clear  
Wind Chill: 54°   Ceiling: Unl
Heat Index: 54°   Visibility: 10mi
Dew Point: 50°   Wind: 17mph
Humidity: 86%   Direction: 190°S
Pressure: 29.72"   Gusts: NA
Location:  35.89°N, 82.83°W
Report Text: KAVL 240754Z AUTO 19015KT 10SM CLR 12/10 A2972 RMK AO2 SLP057 T01220100
Loading
Personal Weather Stations






























Interactive Weather Map New forecast layout! Learn more

10-Day Weather Forecast

Advertisements
Track Severe Weather on mobile